createdAt,value
2018-07-11T00:01:33.168Z,3.70
2018-07-11T00:04:38.576Z,3.40
2018-07-11T00:07:43.857Z,3.90
2018-07-11T00:10:47.970Z,4.50
2018-07-11T00:14:02.331Z,4.20
2018-07-11T00:17:12.226Z,4.20
2018-07-11T00:20:16.264Z,4.40
2018-07-11T00:23:23.025Z,4.90
2018-07-11T00:26:33.943Z,4.90
2018-07-11T00:29:44.314Z,5.13
2018-07-11T00:32:51.686Z,5.30
2018-07-11T00:36:17.646Z,5.57
2018-07-11T00:39:21.560Z,5.83
2018-07-11T00:42:28.895Z,5.70
2018-07-11T00:45:36.546Z,5.73
2018-07-11T00:48:40.912Z,6.00
2018-07-11T00:51:44.618Z,6.37
2018-07-11T00:54:52.121Z,7.00
2018-07-11T00:58:04.310Z,7.10
2018-07-11T01:01:16.786Z,7.00
2018-07-11T01:04:20.676Z,5.80
2018-07-11T01:07:25.502Z,6.97
2018-07-11T01:10:31.252Z,7.10
2018-07-11T01:13:35.056Z,6.83
2018-07-11T01:16:38.594Z,6.80
2018-07-11T01:19:44.019Z,6.83
2018-07-11T01:22:51.159Z,7.30
2018-07-11T01:25:55.998Z,6.90
2018-07-11T01:29:00.039Z,6.60
2018-07-11T01:32:03.709Z,8.53
2018-07-11T01:35:07.419Z,7.80
2018-07-11T01:38:11.051Z,7.53
2018-07-11T01:41:15.177Z,8.70
2018-07-11T01:44:18.724Z,8.47
2018-07-11T01:47:22.679Z,7.37
2018-07-11T01:50:26.344Z,7.20
2018-07-11T01:53:30.057Z,8.60
2018-07-11T01:56:33.852Z,8.70
2018-07-11T01:59:37.901Z,7.87
2018-07-11T02:02:42.253Z,8.23
2018-07-11T02:05:47.050Z,8.23
2018-07-11T02:08:50.761Z,8.93
2018-07-11T02:11:54.266Z,8.07
2018-07-11T02:15:04.735Z,8.50
2018-07-11T02:18:08.342Z,9.17
2018-07-11T02:21:11.972Z,7.83
2018-07-11T02:24:15.673Z,9.90
2018-07-11T02:27:19.026Z,9.27
2018-07-11T02:30:22.578Z,9.20
2018-07-11T02:33:28.186Z,9.00
2018-07-11T02:36:31.841Z,9.30
2018-07-11T02:39:35.477Z,10.10
2018-07-11T02:42:39.069Z,9.90
2018-07-11T02:45:42.701Z,10.07
2018-07-11T02:48:46.477Z,9.50
2018-07-11T02:51:50.054Z,10.50
2018-07-11T02:54:53.713Z,10.67
2018-07-11T02:58:00.274Z,10.57
2018-07-11T03:01:03.832Z,11.87
2018-07-11T03:04:07.347Z,11.53
2018-07-11T03:07:11.221Z,11.23
2018-07-11T03:10:14.940Z,11.60
2018-07-11T03:13:21.359Z,12.83
2018-07-11T03:16:25.062Z,11.90
2018-07-11T03:19:31.731Z,12.93
2018-07-11T03:22:35.419Z,13.00
2018-07-11T03:25:39.300Z,12.67
2018-07-11T03:28:42.896Z,13.27
2018-07-11T03:31:46.568Z,14.23
2018-07-11T03:34:50.418Z,13.90
2018-07-11T03:37:53.951Z,13.70
2018-07-11T03:40:57.494Z,13.20
2018-07-11T03:44:01.134Z,12.97
2018-07-11T03:47:04.808Z,14.00
2018-07-11T03:50:08.384Z,13.20
2018-07-11T03:53:11.814Z,14.37
2018-07-11T03:56:15.345Z,14.40
2018-07-11T03:59:18.976Z,13.13
2018-07-11T04:02:22.479Z,15.13
2018-07-11T04:05:26.010Z,13.87
2018-07-11T04:08:29.526Z,13.87
2018-07-11T04:11:33.126Z,13.80
2018-07-11T04:14:36.697Z,12.53
2018-07-11T04:17:40.291Z,14.83
2018-07-11T04:20:43.749Z,13.63
2018-07-11T04:23:47.335Z,12.20
2018-07-11T04:26:51.003Z,14.60
2018-07-11T04:29:54.860Z,12.10
2018-07-11T04:32:58.422Z,14.57
2018-07-11T04:36:02.796Z,12.47
2018-07-11T04:39:06.208Z,14.00
2018-07-11T04:42:09.774Z,13.30
2018-07-11T04:45:13.340Z,13.40
2018-07-11T04:48:19.727Z,13.13
2018-07-11T04:51:23.371Z,12.87
2018-07-11T04:54:27.258Z,14.07
2018-07-11T04:57:30.919Z,14.47
2018-07-11T05:00:34.410Z,14.53
2018-07-11T05:03:37.899Z,14.90
2018-07-11T05:06:41.388Z,14.83
2018-07-11T05:09:45.167Z,16.00
2018-07-11T05:12:48.625Z,15.57
2018-07-11T05:15:52.169Z,15.87
2018-07-11T05:18:55.497Z,16.33
2018-07-11T05:21:59.057Z,13.63
2018-07-11T05:25:02.726Z,15.10
2018-07-11T05:28:06.269Z,15.10
2018-07-11T05:31:09.839Z,17.00
2018-07-11T05:34:13.370Z,14.83
2018-07-11T05:37:16.884Z,16.47
2018-07-11T05:40:20.311Z,17.37
2018-07-11T05:43:23.823Z,15.30
2018-07-11T05:46:27.222Z,15.37
2018-07-11T05:49:30.920Z,16.40
2018-07-11T05:52:34.448Z,15.70
2018-07-11T05:55:37.993Z,15.00
2018-07-11T05:58:41.540Z,14.50
2018-07-11T06:01:45.238Z,15.47
2018-07-11T06:04:48.720Z,14.60
2018-07-11T06:07:52.189Z,15.53
2018-07-11T06:10:55.740Z,14.70
2018-07-11T06:13:59.181Z,14.30
2018-07-11T06:17:02.651Z,14.67
2018-07-11T06:20:06.364Z,15.63
2018-07-11T06:23:09.856Z,14.33
2018-07-11T06:26:13.484Z,14.50
2018-07-11T06:29:17.215Z,14.90
2018-07-11T06:32:20.654Z,14.70
2018-07-11T06:35:24.083Z,14.43
2018-07-11T06:38:27.691Z,14.03
2018-07-11T06:41:31.585Z,13.87
2018-07-11T06:44:35.187Z,15.20
2018-07-11T06:47:38.773Z,15.10
2018-07-11T06:50:42.157Z,14.47
2018-07-11T06:53:45.633Z,13.60
2018-07-11T06:56:48.973Z,13.97
2018-07-11T06:59:52.451Z,14.67
2018-07-11T07:02:55.718Z,13.57
2018-07-11T07:05:59.076Z,14.77
2018-07-11T07:09:02.442Z,13.47
2018-07-11T07:12:06.161Z,12.97
2018-07-11T07:15:09.490Z,10.90
2018-07-11T07:18:12.928Z,11.27
2018-07-11T07:21:16.158Z,11.67
2018-07-11T07:24:19.433Z,10.80
2018-07-11T07:27:22.756Z,11.73
2018-07-11T07:30:26.096Z,12.00
2018-07-11T07:33:29.392Z,10.63
2018-07-11T07:36:32.678Z,10.13
2018-07-11T07:39:36.028Z,9.43
2018-07-11T07:42:39.371Z,9.67
2018-07-11T07:45:44.242Z,8.00
2018-07-11T07:48:47.630Z,8.60
2018-07-11T07:51:51.005Z,8.00
2018-07-11T07:54:54.438Z,8.90
2018-07-11T07:57:57.876Z,7.60
2018-07-11T08:01:01.293Z,7.23
2018-07-11T08:04:04.647Z,6.90
2018-07-11T08:07:08.002Z,6.63
2018-07-11T08:10:12.161Z,7.30
2018-07-11T08:13:15.515Z,6.80
2018-07-11T08:16:18.793Z,7.67
2018-07-11T08:19:22.125Z,6.30
2018-07-11T08:23:43.926Z,7.27
2018-07-11T08:28:02.683Z,5.20
2018-07-11T08:31:18.221Z,5.30
2018-07-11T08:35:48.136Z,5.23
2018-07-11T08:40:18.222Z,3.90
2018-07-11T08:43:57.363Z,4.60
2018-07-11T08:47:17.495Z,5.50
2018-07-11T08:50:53.855Z,4.73
2018-07-11T08:56:08.469Z,4.40
2018-07-11T09:02:36.520Z,4.60
2018-07-11T09:06:17.054Z,3.20
2018-07-11T09:11:41.531Z,4.17
2018-07-11T09:15:05.466Z,4.23
2018-07-11T09:18:25.525Z,4.67
2018-07-11T09:24:08.887Z,5.00
2018-07-11T09:27:12.656Z,5.00
2018-07-11T09:30:16.285Z,5.10
2018-07-11T09:33:19.763Z,5.60
2018-07-11T09:36:23.126Z,6.37
2018-07-11T09:39:26.545Z,7.40
2018-07-11T09:42:30.015Z,7.17
2018-07-11T09:45:33.506Z,7.37
2018-07-11T09:48:37.042Z,5.47
2018-07-11T09:51:40.579Z,6.70
2018-07-11T09:54:44.139Z,5.87
2018-07-11T09:57:47.741Z,5.83
2018-07-11T10:00:56.800Z,5.23
2018-07-11T10:04:00.458Z,5.47
2018-07-11T10:07:05.254Z,5.23
2018-07-11T10:10:08.735Z,5.03
2018-07-11T10:13:12.266Z,5.23
2018-07-11T10:16:16.445Z,4.93
2018-07-11T10:19:19.939Z,6.30
2018-07-11T10:22:23.450Z,4.27
2018-07-11T10:25:26.951Z,5.00
2018-07-11T10:28:30.323Z,7.27
2018-07-11T10:31:33.717Z,4.93
2018-07-11T10:34:37.170Z,5.80
2018-07-11T10:37:40.502Z,6.07
2018-07-11T10:40:43.913Z,5.43
2018-07-11T10:43:47.812Z,4.90
2018-07-11T10:46:55.678Z,5.10
2018-07-11T10:49:59.177Z,5.70
2018-07-11T10:53:02.810Z,5.43
2018-07-11T10:56:06.131Z,5.20
2018-07-11T10:59:10.368Z,4.13
2018-07-11T11:02:18.625Z,4.80
2018-07-11T11:05:22.295Z,4.93
2018-07-11T11:08:26.531Z,5.07
2018-07-11T11:11:29.949Z,5.03
2018-07-11T11:14:33.375Z,5.20
2018-07-11T11:17:36.798Z,5.37
2018-07-11T11:20:40.142Z,5.50
2018-07-11T11:23:43.466Z,4.17
2018-07-11T11:26:46.833Z,3.67
2018-07-11T11:29:50.213Z,3.63
2018-07-11T11:32:53.609Z,3.37
2018-07-11T11:35:57.086Z,3.80
2018-07-11T11:39:00.398Z,3.80
2018-07-11T11:42:04.004Z,3.60
2018-07-11T11:45:07.322Z,5.37
2018-07-11T11:48:10.604Z,4.27
2018-07-11T11:51:14.002Z,4.13
2018-07-11T11:54:17.369Z,5.53
2018-07-11T11:57:20.899Z,5.20
2018-07-11T12:00:24.314Z,5.17
2018-07-11T12:03:27.685Z,4.20
2018-07-11T12:06:31.116Z,4.30
2018-07-11T12:09:41.082Z,4.07
2018-07-11T12:12:44.611Z,3.10
2018-07-11T12:15:47.844Z,3.40
2018-07-11T12:18:51.102Z,4.50
2018-07-11T12:21:54.888Z,5.30
2018-07-11T12:24:58.325Z,5.30
2018-07-11T12:28:01.665Z,4.70
2018-07-11T12:31:05.336Z,4.80
2018-07-11T12:34:08.796Z,5.13
2018-07-11T12:37:12.852Z,6.10
2018-07-11T12:40:16.407Z,6.50
2018-07-11T12:43:19.865Z,5.47
2018-07-11T12:46:23.249Z,5.27
2018-07-11T12:49:26.943Z,6.20
2018-07-11T12:52:30.408Z,7.40
2018-07-11T12:55:33.922Z,6.83
2018-07-11T12:58:37.413Z,7.90
2018-07-11T13:01:40.741Z,7.40
2018-07-11T13:04:44.359Z,7.47
2018-07-11T13:07:47.805Z,8.13
2018-07-11T13:10:51.376Z,7.20
2018-07-11T13:13:54.781Z,7.80
2018-07-11T13:16:58.115Z,10.27
2018-07-11T13:20:01.393Z,9.00
2018-07-11T13:23:04.875Z,8.30
2018-07-11T13:26:08.238Z,9.30
2018-07-11T13:29:11.623Z,10.10
2018-07-11T13:32:14.969Z,8.80
2018-07-11T13:35:18.394Z,7.93
2018-07-11T13:38:21.741Z,9.90
2018-07-11T13:41:25.043Z,10.13
2018-07-11T13:44:28.319Z,8.73
2018-07-11T13:47:31.646Z,9.07
2018-07-11T13:50:35.346Z,9.37
2018-07-11T13:53:38.692Z,9.50
2018-07-11T13:56:42.645Z,8.33
2018-07-11T13:59:46.104Z,9.20
2018-07-11T14:02:49.629Z,10.60
2018-07-11T14:05:53.072Z,10.30
2018-07-11T14:08:56.759Z,10.20
2018-07-11T14:12:00.264Z,10.77
2018-07-11T14:15:04.134Z,11.73
2018-07-11T14:18:07.544Z,11.73
2018-07-11T14:21:10.923Z,11.53
2018-07-11T14:24:14.389Z,11.90
2018-07-11T14:27:19.053Z,12.00
2018-07-11T14:30:24.475Z,14.20
2018-07-11T14:33:30.910Z,11.53
2018-07-11T14:36:34.726Z,12.53
2018-07-11T14:39:38.119Z,13.10
2018-07-11T14:42:55.988Z,11.70
2018-07-11T14:46:00.585Z,12.83
2018-07-11T14:49:05.371Z,12.97
2018-07-11T14:52:09.449Z,13.93
2018-07-11T14:55:13.637Z,14.00
2018-07-11T14:58:19.306Z,19.83
2018-07-11T15:01:23.939Z,15.37
2018-07-11T15:04:28.275Z,14.67
2018-07-11T15:07:32.360Z,13.60
2018-07-11T15:10:36.056Z,13.40
2018-07-11T15:13:57.309Z,13.57
2018-07-11T15:17:31.695Z,14.40
2018-07-11T15:20:57.035Z,14.67
2018-07-11T15:24:04.076Z,13.40
2018-07-11T15:27:08.509Z,13.40
2018-07-11T15:30:12.304Z,12.60
2018-07-11T15:33:16.947Z,13.10
2018-07-11T15:36:20.599Z,12.20
2018-07-11T15:39:25.277Z,13.00
2018-07-11T15:42:29.074Z,12.73
2018-07-11T15:45:32.738Z,12.97
2018-07-11T15:48:36.391Z,13.30
2018-07-11T15:51:40.112Z,15.93
2018-07-11T15:54:43.745Z,16.03
2018-07-11T15:57:53.048Z,15.60
2018-07-11T16:01:04.378Z,14.53
2018-07-11T16:04:08.075Z,15.30
2018-07-11T16:07:11.656Z,13.90
2018-07-11T16:10:18.600Z,14.63
2018-07-11T16:13:24.955Z,14.63
2018-07-11T16:20:06.297Z,14.57
2018-07-11T16:23:11.453Z,15.00
2018-07-11T16:26:15.292Z,17.73
2018-07-11T16:29:19.102Z,17.17
2018-07-11T16:32:22.823Z,16.80
2018-07-11T16:35:26.393Z,15.80
2018-07-11T16:38:30.203Z,15.10
2018-07-11T16:41:34.362Z,16.90
2018-07-11T16:44:39.296Z,15.97
2018-07-11T16:47:44.355Z,14.70
2018-07-11T16:50:48.197Z,14.67
2018-07-11T16:53:52.049Z,14.90
2018-07-11T16:56:56.167Z,15.67
2018-07-11T17:00:07.407Z,18.97
2018-07-11T17:03:17.589Z,15.80
2018-07-11T17:06:21.401Z,15.60
2018-07-11T17:09:28.044Z,14.70
2018-07-11T17:12:31.962Z,14.10
2018-07-11T17:15:37.542Z,13.73
2018-07-11T17:18:47.025Z,15.43
2018-07-11T17:21:50.709Z,15.00
2018-07-11T17:24:54.502Z,15.40
2018-07-11T17:28:02.714Z,16.10
2018-07-11T17:31:06.643Z,16.70
2018-07-11T17:34:10.846Z,16.13
2018-07-11T17:37:16.094Z,17.57
2018-07-11T17:40:24.877Z,16.83
2018-07-11T17:43:36.717Z,15.20
2018-07-11T17:46:40.619Z,14.70
2018-07-11T17:49:53.165Z,14.47
2018-07-11T17:53:22.269Z,15.20
2018-07-11T17:56:59.270Z,15.63
2018-07-11T18:00:10.171Z,15.33
2018-07-11T18:04:32.937Z,14.43
2018-07-11T18:07:47.083Z,13.83
2018-07-11T18:10:54.662Z,15.27
2018-07-11T18:13:58.018Z,14.63
2018-07-11T18:18:18.575Z,15.13
2018-07-11T18:21:52.026Z,14.50
2018-07-11T18:26:11.414Z,15.00
2018-07-11T18:29:47.984Z,13.33
2018-07-11T18:34:02.072Z,14.27
2018-07-11T18:37:24.133Z,17.73
2018-07-11T18:42:58.542Z,15.20
2018-07-11T18:46:25.856Z,15.60
2018-07-11T18:49:36.544Z,16.27
2018-07-11T18:53:14.469Z,15.60
2018-07-11T18:57:05.353Z,16.40
2018-07-11T19:00:26.123Z,16.97
2018-07-11T19:03:37.230Z,17.03
2018-07-11T19:07:14.712Z,14.93
2018-07-11T19:11:35.833Z,14.60
2018-07-11T19:14:40.772Z,11.33
2018-07-11T19:18:02.425Z,9.93
2018-07-11T19:21:11.677Z,11.20
2018-07-11T19:24:18.326Z,11.00
2018-07-11T19:27:37.738Z,12.33
2018-07-11T19:31:00.882Z,11.80
2018-07-11T19:35:18.470Z,43.33
2018-07-11T19:38:51.394Z,14.30
2018-07-11T19:42:12.187Z,14.70
2018-07-11T19:45:29.719Z,14.20
2018-07-11T19:50:54.291Z,13.83
2018-07-11T19:55:35.514Z,13.30
2018-07-11T19:58:38.798Z,13.20
2018-07-11T20:01:43.075Z,14.57
2018-07-11T20:04:46.448Z,14.50
2018-07-11T20:07:50.130Z,13.63
2018-07-11T20:10:53.861Z,14.43
2018-07-11T20:13:58.164Z,13.73
2018-07-11T20:17:01.690Z,12.40
2018-07-11T20:20:06.490Z,14.30
2018-07-11T20:23:11.138Z,13.03
2018-07-11T20:26:15.248Z,13.93
2018-07-11T20:29:19.015Z,15.27
2018-07-11T20:32:22.610Z,14.60
2018-07-11T20:35:25.840Z,14.80
2018-07-11T20:38:29.018Z,15.50
2018-07-11T20:41:32.510Z,13.80
2018-07-11T20:44:36.151Z,14.07
2018-07-11T20:47:40.150Z,14.93
2018-07-11T20:50:43.598Z,37.37
2018-07-11T20:53:47.223Z,91.97
2018-07-11T20:56:50.354Z,16.57
2018-07-11T21:00:10.712Z,13.83
2018-07-11T21:04:25.608Z,13.57
2018-07-11T21:09:27.901Z,14.83
2018-07-11T21:14:52.064Z,15.40
2018-07-11T21:18:17.487Z,14.17
2018-07-11T21:21:20.760Z,14.47
2018-07-11T21:24:24.974Z,15.07
2018-07-11T21:27:28.760Z,14.57
2018-07-11T21:30:34.277Z,14.37
2018-07-11T21:33:38.881Z,13.97
2018-07-11T21:36:44.980Z,12.53
2018-07-11T21:39:48.855Z,11.90
2018-07-11T21:42:53.035Z,12.37
2018-07-11T21:45:57.406Z,11.33
2018-07-11T21:49:00.665Z,11.57
2018-07-11T21:52:04.230Z,11.60
2018-07-11T21:55:07.362Z,12.67
2018-07-11T21:58:10.489Z,12.63
2018-07-11T22:01:14.246Z,10.67
2018-07-11T22:04:17.402Z,10.90
2018-07-11T22:07:20.503Z,11.57
2018-07-11T22:10:23.687Z,11.90
2018-07-11T22:13:26.959Z,12.47
2018-07-11T22:16:30.118Z,11.80
2018-07-11T22:19:32.938Z,11.90
2018-07-11T22:22:34.530Z,11.87
2018-07-11T22:25:36.062Z,11.37
2018-07-11T22:28:37.575Z,10.63
2018-07-11T22:31:39.099Z,11.40
2018-07-11T22:34:40.662Z,11.87
2018-07-11T22:37:42.181Z,11.30
2018-07-11T22:40:44.323Z,12.57
2018-07-11T22:43:45.894Z,11.03
2018-07-11T22:46:47.414Z,12.40
2018-07-11T22:49:54.690Z,11.77
2018-07-11T22:52:56.296Z,11.67
2018-07-11T22:55:57.814Z,11.70
2018-07-11T22:58:59.345Z,11.63
2018-07-11T23:02:00.889Z,13.00
2018-07-11T23:05:02.483Z,12.60
2018-07-11T23:08:04.005Z,11.87
2018-07-11T23:11:05.623Z,12.00
2018-07-11T23:14:07.185Z,11.40
2018-07-11T23:17:09.569Z,12.90
2018-07-11T23:20:11.100Z,11.63
2018-07-11T23:23:12.638Z,12.93
2018-07-11T23:26:14.198Z,13.33
2018-07-11T23:29:15.753Z,11.60
2018-07-11T23:32:17.281Z,12.50
2018-07-11T23:35:18.821Z,11.40
2018-07-11T23:38:20.384Z,11.23
2018-07-11T23:41:21.954Z,12.70
2018-07-11T23:44:23.908Z,13.53
2018-07-11T23:47:25.398Z,12.60
2018-07-11T23:50:27.372Z,12.07
2018-07-11T23:53:28.863Z,13.50
2018-07-11T23:56:30.371Z,12.40
2018-07-11T23:59:31.914Z,13.80
